sensor_id;sensor_type;location;lat;lon;timestamp;P1;durP1;ratioP1;P2;durP2;ratioP2
17592;SDS011;8915;51.760;14.300;2022-09-09T00:02:10;2.47;;;2.20;;
17592;SDS011;8915;51.760;14.300;2022-09-09T00:04:52;2.47;;;1.93;;
17592;SDS011;8915;51.760;14.300;2022-09-09T00:07:30;2.67;;;2.40;;
17592;SDS011;8915;51.760;14.300;2022-09-09T00:10:07;2.37;;;2.17;;
17592;SDS011;8915;51.760;14.300;2022-09-09T00:12:46;2.53;;;2.33;;
17592;SDS011;8915;51.760;14.300;2022-09-09T00:15:22;2.40;;;2.00;;
17592;SDS011;8915;51.760;14.300;2022-09-09T00:17:52;2.50;;;2.30;;
17592;SDS011;8915;51.760;14.300;2022-09-09T00:20:28;2.03;;;1.90;;
17592;SDS011;8915;51.760;14.300;2022-09-09T00:23:00;2.23;;;2.00;;
17592;SDS011;8915;51.760;14.300;2022-09-09T00:25:32;2.80;;;2.50;;
17592;SDS011;8915;51.760;14.300;2022-09-09T00:28:08;2.50;;;2.30;;
17592;SDS011;8915;51.760;14.300;2022-09-09T00:30:43;2.37;;;2.17;;
17592;SDS011;8915;51.760;14.300;2022-09-09T00:33:15;4.90;;;2.20;;
17592;SDS011;8915;51.760;14.300;2022-09-09T00:35:48;2.83;;;2.40;;
17592;SDS011;8915;51.760;14.300;2022-09-09T00:38:18;5.30;;;2.70;;
17592;SDS011;8915;51.760;14.300;2022-09-09T00:40:50;2.40;;;2.20;;
17592;SDS011;8915;51.760;14.300;2022-09-09T00:43:29;3.70;;;2.27;;
17592;SDS011;8915;51.760;14.300;2022-09-09T00:46:01;3.00;;;2.53;;
17592;SDS011;8915;51.760;14.300;2022-09-09T00:48:41;1.97;;;1.87;;
17592;SDS011;8915;51.760;14.300;2022-09-09T00:51:21;2.77;;;2.57;;
17592;SDS011;8915;51.760;14.300;2022-09-09T00:54:09;3.43;;;2.77;;
17592;SDS011;8915;51.760;14.300;2022-09-09T00:57:00;2.63;;;2.40;;
17592;SDS011;8915;51.760;14.300;2022-09-09T00:59:41;2.73;;;2.53;;
17592;SDS011;8915;51.760;14.300;2022-09-09T01:02:15;2.63;;;2.43;;
17592;SDS011;8915;51.760;14.300;2022-09-09T01:04:53;3.77;;;2.47;;
17592;SDS011;8915;51.760;14.300;2022-09-09T01:07:22;2.33;;;2.13;;
17592;SDS011;8915;51.760;14.300;2022-09-09T01:09:54;2.30;;;2.10;;
17592;SDS011;8915;51.760;14.300;2022-09-09T01:12:28;2.90;;;2.40;;
17592;SDS011;8915;51.760;14.300;2022-09-09T01:15:08;2.73;;;2.50;;
17592;SDS011;8915;51.760;14.300;2022-09-09T01:17:52;2.90;;;2.47;;
17592;SDS011;8915;51.760;14.300;2022-09-09T01:20:29;2.60;;;2.30;;
17592;SDS011;8915;51.760;14.300;2022-09-09T01:23:09;2.50;;;2.30;;
17592;SDS011;8915;51.760;14.300;2022-09-09T01:26:17;3.40;;;2.53;;
17592;SDS011;8915;51.760;14.300;2022-09-09T01:28:49;2.20;;;2.00;;
17592;SDS011;8915;51.760;14.300;2022-09-09T01:31:22;2.47;;;2.27;;
17592;SDS011;8915;51.760;14.300;2022-09-09T01:33:57;3.87;;;2.50;;
17592;SDS011;8915;51.760;14.300;2022-09-09T01:36:26;2.90;;;2.60;;
17592;SDS011;8915;51.760;14.300;2022-09-09T01:38:59;3.10;;;2.80;;
17592;SDS011;8915;51.760;14.300;2022-09-09T01:41:28;2.93;;;2.73;;
17592;SDS011;8915;51.760;14.300;2022-09-09T01:44:01;4.53;;;2.27;;
17592;SDS011;8915;51.760;14.300;2022-09-09T01:46:32;2.73;;;2.47;;
17592;SDS011;8915;51.760;14.300;2022-09-09T01:49:00;2.37;;;2.17;;
17592;SDS011;8915;51.760;14.300;2022-09-09T01:51:29;2.40;;;2.20;;
17592;SDS011;8915;51.760;14.300;2022-09-09T01:54:00;2.10;;;1.90;;
17592;SDS011;8915;51.760;14.300;2022-09-09T01:56:34;3.00;;;1.77;;
17592;SDS011;8915;51.760;14.300;2022-09-09T01:59:23;2.20;;;2.00;;
17592;SDS011;8915;51.760;14.300;2022-09-09T02:02:06;2.50;;;2.30;;
17592;SDS011;8915;51.760;14.300;2022-09-09T02:04:41;1.80;;;1.70;;
17592;SDS011;8915;51.760;14.300;2022-09-09T02:07:22;2.97;;;2.37;;
17592;SDS011;8915;51.760;14.300;2022-09-09T02:10:12;2.67;;;2.30;;
17592;SDS011;8915;51.760;14.300;2022-09-09T02:12:55;2.90;;;2.50;;
17592;SDS011;8915;51.760;14.300;2022-09-09T02:15:32;2.70;;;2.50;;
17592;SDS011;8915;51.760;14.300;2022-09-09T02:18:03;3.13;;;2.47;;
17592;SDS011;8915;51.760;14.300;2022-09-09T02:20:33;2.20;;;2.00;;
17592;SDS011;8915;51.760;14.300;2022-09-09T02:23:04;2.40;;;2.20;;
17592;SDS011;8915;51.760;14.300;2022-09-09T02:25:35;2.70;;;2.03;;
17592;SDS011;8915;51.760;14.300;2022-09-09T02:28:15;2.10;;;1.90;;
17592;SDS011;8915;51.760;14.300;2022-09-09T02:30:46;3.50;;;2.43;;
17592;SDS011;8915;51.760;14.300;2022-09-09T02:33:24;2.63;;;2.10;;
17592;SDS011;8915;51.760;14.300;2022-09-09T02:35:54;2.10;;;1.90;;
17592;SDS011;8915;51.760;14.300;2022-09-09T02:38:29;2.10;;;1.90;;
17592;SDS011;8915;51.760;14.300;2022-09-09T02:41:07;2.27;;;2.03;;
17592;SDS011;8915;51.760;14.300;2022-09-09T02:43:37;2.10;;;1.90;;
17592;SDS011;8915;51.760;14.300;2022-09-09T02:46:10;2.63;;;2.27;;
17592;SDS011;8915;51.760;14.300;2022-09-09T02:48:51;3.53;;;2.27;;
17592;SDS011;8915;51.760;14.300;2022-09-09T02:51:29;3.77;;;2.20;;
17592;SDS011;8915;51.760;14.300;2022-09-09T02:54:04;3.13;;;2.47;;
17592;SDS011;8915;51.760;14.300;2022-09-09T02:56:39;3.93;;;2.60;;
17592;SDS011;8915;51.760;14.300;2022-09-09T02:59:13;2.40;;;2.00;;
17592;SDS011;8915;51.760;14.300;2022-09-09T03:01:40;2.50;;;2.30;;
17592;SDS011;8915;51.760;14.300;2022-09-09T03:04:08;2.40;;;2.20;;
17592;SDS011;8915;51.760;14.300;2022-09-09T03:06:36;2.83;;;2.23;;
17592;SDS011;8915;51.760;14.300;2022-09-09T03:09:14;2.60;;;1.87;;
17592;SDS011;8915;51.760;14.300;2022-09-09T03:11:41;2.10;;;1.90;;
17592;SDS011;8915;51.760;14.300;2022-09-09T03:14:08;2.13;;;1.93;;
17592;SDS011;8915;51.760;14.300;2022-09-09T03:16:38;2.23;;;2.03;;
17592;SDS011;8915;51.760;14.300;2022-09-09T03:19:06;3.07;;;2.03;;
17592;SDS011;8915;51.760;14.300;2022-09-09T03:21:33;2.47;;;2.10;;
17592;SDS011;8915;51.760;14.300;2022-09-09T03:24:01;2.10;;;1.90;;
17592;SDS011;8915;51.760;14.300;2022-09-09T03:26:29;2.40;;;2.13;;
17592;SDS011;8915;51.760;14.300;2022-09-09T03:28:57;3.63;;;2.50;;
17592;SDS011;8915;51.760;14.300;2022-09-09T03:31:26;3.87;;;2.23;;
17592;SDS011;8915;51.760;14.300;2022-09-09T03:33:57;2.20;;;2.00;;
17592;SDS011;8915;51.760;14.300;2022-09-09T03:36:27;2.30;;;2.03;;
17592;SDS011;8915;51.760;14.300;2022-09-09T03:38:54;2.30;;;2.10;;
17592;SDS011;8915;51.760;14.300;2022-09-09T03:41:24;2.30;;;2.10;;
17592;SDS011;8915;51.760;14.300;2022-09-09T03:43:51;2.17;;;1.97;;
17592;SDS011;8915;51.760;14.300;2022-09-09T03:46:22;2.53;;;1.93;;
17592;SDS011;8915;51.760;14.300;2022-09-09T03:48:51;2.20;;;1.70;;
17592;SDS011;8915;51.760;14.300;2022-09-09T03:51:22;1.80;;;1.70;;
17592;SDS011;8915;51.760;14.300;2022-09-09T03:53:50;1.83;;;1.67;;
17592;SDS011;8915;51.760;14.300;2022-09-09T03:56:17;2.37;;;2.13;;
17592;SDS011;8915;51.760;14.300;2022-09-09T03:58:46;1.83;;;1.70;;
17592;SDS011;8915;51.760;14.300;2022-09-09T04:01:13;2.00;;;1.80;;
17592;SDS011;8915;51.760;14.300;2022-09-09T04:03:43;3.43;;;2.23;;
17592;SDS011;8915;51.760;14.300;2022-09-09T04:06:11;3.07;;;2.03;;
17592;SDS011;8915;51.760;14.300;2022-09-09T04:08:44;3.27;;;2.33;;
17592;SDS011;8915;51.760;14.300;2022-09-09T04:11:14;2.27;;;2.07;;
17592;SDS011;8915;51.760;14.300;2022-09-09T04:13:43;2.03;;;1.83;;
17592;SDS011;8915;51.760;14.300;2022-09-09T04:16:11;2.07;;;1.87;;
17592;SDS011;8915;51.760;14.300;2022-09-09T04:18:41;2.97;;;2.20;;
17592;SDS011;8915;51.760;14.300;2022-09-09T04:21:08;2.40;;;2.20;;
17592;SDS011;8915;51.760;14.300;2022-09-09T04:23:38;2.27;;;2.00;;
17592;SDS011;8915;51.760;14.300;2022-09-09T04:26:07;2.57;;;2.13;;
17592;SDS011;8915;51.760;14.300;2022-09-09T04:28:35;3.63;;;2.40;;
17592;SDS011;8915;51.760;14.300;2022-09-09T04:31:08;5.63;;;2.27;;
17592;SDS011;8915;51.760;14.300;2022-09-09T04:33:39;2.73;;;2.20;;
17592;SDS011;8915;51.760;14.300;2022-09-09T04:36:07;3.23;;;2.10;;
17592;SDS011;8915;51.760;14.300;2022-09-09T04:38:35;2.37;;;2.10;;
17592;SDS011;8915;51.760;14.300;2022-09-09T04:41:03;2.53;;;2.30;;
17592;SDS011;8915;51.760;14.300;2022-09-09T04:43:33;2.10;;;1.90;;
17592;SDS011;8915;51.760;14.300;2022-09-09T04:46:04;2.03;;;1.83;;
17592;SDS011;8915;51.760;14.300;2022-09-09T04:48:32;2.40;;;2.20;;
17592;SDS011;8915;51.760;14.300;2022-09-09T04:51:00;2.80;;;2.50;;
17592;SDS011;8915;51.760;14.300;2022-09-09T04:53:30;2.83;;;2.13;;
17592;SDS011;8915;51.760;14.300;2022-09-09T04:56:03;2.57;;;2.37;;
17592;SDS011;8915;51.760;14.300;2022-09-09T04:58:36;2.17;;;1.97;;
17592;SDS011;8915;51.760;14.300;2022-09-09T05:01:06;2.67;;;2.20;;
17592;SDS011;8915;51.760;14.300;2022-09-09T05:03:35;2.77;;;2.53;;
17592;SDS011;8915;51.760;14.300;2022-09-09T05:06:05;3.77;;;2.37;;
17592;SDS011;8915;51.760;14.300;2022-09-09T05:08:35;2.73;;;2.10;;
17592;SDS011;8915;51.760;14.300;2022-09-09T05:11:02;2.30;;;2.10;;
17592;SDS011;8915;51.760;14.300;2022-09-09T05:13:30;2.73;;;2.00;;
17592;SDS011;8915;51.760;14.300;2022-09-09T05:16:00;2.37;;;2.17;;
17592;SDS011;8915;51.760;14.300;2022-09-09T05:18:27;3.67;;;2.40;;
17592;SDS011;8915;51.760;14.300;2022-09-09T05:20:59;2.63;;;2.03;;
17592;SDS011;8915;51.760;14.300;2022-09-09T05:23:28;2.67;;;2.33;;
17592;SDS011;8915;51.760;14.300;2022-09-09T05:25:56;4.53;;;2.50;;
17592;SDS011;8915;51.760;14.300;2022-09-09T05:28:25;2.43;;;2.20;;
17592;SDS011;8915;51.760;14.300;2022-09-09T05:30:56;2.47;;;2.27;;
17592;SDS011;8915;51.760;14.300;2022-09-09T05:33:26;4.17;;;2.10;;
17592;SDS011;8915;51.760;14.300;2022-09-09T05:35:56;2.70;;;2.10;;
17592;SDS011;8915;51.760;14.300;2022-09-09T05:38:24;2.73;;;2.40;;
17592;SDS011;8915;51.760;14.300;2022-09-09T05:40:52;2.07;;;1.77;;
17592;SDS011;8915;51.760;14.300;2022-09-09T05:43:19;4.43;;;2.83;;
17592;SDS011;8915;51.760;14.300;2022-09-09T05:45:46;4.73;;;2.20;;
17592;SDS011;8915;51.760;14.300;2022-09-09T05:48:14;2.97;;;2.60;;
17592;SDS011;8915;51.760;14.300;2022-09-09T05:50:43;4.27;;;2.77;;
17592;SDS011;8915;51.760;14.300;2022-09-09T05:53:11;2.60;;;2.20;;
17592;SDS011;8915;51.760;14.300;2022-09-09T05:55:38;3.00;;;2.50;;
17592;SDS011;8915;51.760;14.300;2022-09-09T05:58:04;5.03;;;3.27;;
17592;SDS011;8915;51.760;14.300;2022-09-09T06:00:31;4.37;;;2.50;;
17592;SDS011;8915;51.760;14.300;2022-09-09T06:02:59;3.33;;;2.97;;
17592;SDS011;8915;51.760;14.300;2022-09-09T06:05:26;3.27;;;2.70;;
17592;SDS011;8915;51.760;14.300;2022-09-09T06:07:55;3.00;;;2.70;;
17592;SDS011;8915;51.760;14.300;2022-09-09T06:10:23;3.83;;;3.27;;
17592;SDS011;8915;51.760;14.300;2022-09-09T06:12:52;5.83;;;2.90;;
17592;SDS011;8915;51.760;14.300;2022-09-09T06:15:20;2.90;;;2.60;;
17592;SDS011;8915;51.760;14.300;2022-09-09T06:17:47;6.93;;;2.97;;
17592;SDS011;8915;51.760;14.300;2022-09-09T06:20:20;3.60;;;2.70;;
17592;SDS011;8915;51.760;14.300;2022-09-09T06:22:48;2.80;;;2.50;;
17592;SDS011;8915;51.760;14.300;2022-09-09T06:25:16;8.87;;;3.33;;
17592;SDS011;8915;51.760;14.300;2022-09-09T06:27:47;2.67;;;2.47;;
17592;SDS011;8915;51.760;14.300;2022-09-09T06:30:15;4.20;;;3.10;;
17592;SDS011;8915;51.760;14.300;2022-09-09T06:32:42;3.17;;;2.60;;
17592;SDS011;8915;51.760;14.300;2022-09-09T06:35:09;3.20;;;2.63;;
17592;SDS011;8915;51.760;14.300;2022-09-09T06:37:36;4.90;;;3.00;;
17592;SDS011;8915;51.760;14.300;2022-09-09T06:40:03;3.67;;;2.53;;
17592;SDS011;8915;51.760;14.300;2022-09-09T06:42:32;5.07;;;2.63;;
17592;SDS011;8915;51.760;14.300;2022-09-09T06:45:20;5.93;;;2.73;;
17592;SDS011;8915;51.760;14.300;2022-09-09T06:47:54;4.37;;;2.60;;
17592;SDS011;8915;51.760;14.300;2022-09-09T06:50:21;2.80;;;1.87;;
17592;SDS011;8915;51.760;14.300;2022-09-09T06:52:48;4.87;;;2.70;;
17592;SDS011;8915;51.760;14.300;2022-09-09T06:55:15;4.37;;;2.43;;
17592;SDS011;8915;51.760;14.300;2022-09-09T06:57:44;2.47;;;2.27;;
17592;SDS011;8915;51.760;14.300;2022-09-09T07:00:15;2.80;;;2.50;;
17592;SDS011;8915;51.760;14.300;2022-09-09T07:02:43;7.07;;;3.07;;
17592;SDS011;8915;51.760;14.300;2022-09-09T07:05:11;5.77;;;2.93;;
17592;SDS011;8915;51.760;14.300;2022-09-09T07:07:40;3.60;;;2.47;;
17592;SDS011;8915;51.760;14.300;2022-09-09T07:10:08;5.00;;;2.57;;
17592;SDS011;8915;51.760;14.300;2022-09-09T07:12:36;2.90;;;2.43;;
17592;SDS011;8915;51.760;14.300;2022-09-09T07:15:05;6.33;;;2.50;;
17592;SDS011;8915;51.760;14.300;2022-09-09T07:17:32;4.90;;;2.50;;
17592;SDS011;8915;51.760;14.300;2022-09-09T07:19:58;6.67;;;2.27;;
17592;SDS011;8915;51.760;14.300;2022-09-09T07:22:25;3.37;;;2.60;;
17592;SDS011;8915;51.760;14.300;2022-09-09T07:24:53;5.43;;;2.60;;
17592;SDS011;8915;51.760;14.300;2022-09-09T07:27:20;2.47;;;2.27;;
17592;SDS011;8915;51.760;14.300;2022-09-09T07:29:47;4.70;;;2.73;;
17592;SDS011;8915;51.760;14.300;2022-09-09T07:32:15;7.13;;;3.13;;
17592;SDS011;8915;51.760;14.300;2022-09-09T07:34:42;4.63;;;3.13;;
17592;SDS011;8915;51.760;14.300;2022-09-09T07:37:09;4.87;;;3.27;;
17592;SDS011;8915;51.760;14.300;2022-09-09T07:39:39;5.73;;;3.13;;
17592;SDS011;8915;51.760;14.300;2022-09-09T07:42:06;4.83;;;3.20;;
17592;SDS011;8915;51.760;14.300;2022-09-09T07:44:35;3.73;;;3.03;;
17592;SDS011;8915;51.760;14.300;2022-09-09T07:47:06;6.07;;;3.80;;
17592;SDS011;8915;51.760;14.300;2022-09-09T07:49:39;4.70;;;3.20;;
17592;SDS011;8915;51.760;14.300;2022-09-09T07:52:07;6.77;;;2.67;;
17592;SDS011;8915;51.760;14.300;2022-09-09T07:54:34;4.07;;;2.43;;
17592;SDS011;8915;51.760;14.300;2022-09-09T07:57:03;3.30;;;1.60;;
17592;SDS011;8915;51.760;14.300;2022-09-09T07:59:32;1.43;;;1.33;;
17592;SDS011;8915;51.760;14.300;2022-09-09T08:02:00;1.37;;;1.10;;
17592;SDS011;8915;51.760;14.300;2022-09-09T08:04:29;2.00;;;1.00;;
17592;SDS011;8915;51.760;14.300;2022-09-09T08:06:58;1.50;;;1.00;;
17592;SDS011;8915;51.760;14.300;2022-09-09T08:09:31;1.27;;;0.90;;
17592;SDS011;8915;51.760;14.300;2022-09-09T08:12:15;2.17;;;0.80;;
17592;SDS011;8915;51.760;14.300;2022-09-09T08:14:41;1.07;;;0.90;;
17592;SDS011;8915;51.760;14.300;2022-09-09T08:17:08;1.17;;;0.80;;
17592;SDS011;8915;51.760;14.300;2022-09-09T08:19:36;0.90;;;0.70;;
17592;SDS011;8915;51.760;14.300;2022-09-09T08:22:08;0.67;;;0.67;;
17592;SDS011;8915;51.760;14.300;2022-09-09T08:24:37;0.90;;;0.70;;
17592;SDS011;8915;51.760;14.300;2022-09-09T08:27:04;1.13;;;0.80;;
17592;SDS011;8915;51.760;14.300;2022-09-09T08:29:31;0.60;;;0.60;;
17592;SDS011;8915;51.760;14.300;2022-09-09T08:31:58;0.90;;;0.77;;
17592;SDS011;8915;51.760;14.300;2022-09-09T08:34:26;0.70;;;0.60;;
17592;SDS011;8915;51.760;14.300;2022-09-09T08:36:54;1.93;;;0.77;;
17592;SDS011;8915;51.760;14.300;2022-09-09T08:39:29;0.50;;;0.43;;
17592;SDS011;8915;51.760;14.300;2022-09-09T08:42:04;1.73;;;0.60;;
17592;SDS011;8915;51.760;14.300;2022-09-09T08:44:52;1.60;;;0.97;;
17592;SDS011;8915;51.760;14.300;2022-09-09T08:47:30;0.97;;;0.73;;
17592;SDS011;8915;51.760;14.300;2022-09-09T08:50:13;0.83;;;0.70;;
17592;SDS011;8915;51.760;14.300;2022-09-09T08:52:49;1.67;;;0.60;;
17592;SDS011;8915;51.760;14.300;2022-09-09T08:55:24;1.10;;;0.70;;
17592;SDS011;8915;51.760;14.300;2022-09-09T08:57:56;0.57;;;0.57;;
17592;SDS011;8915;51.760;14.300;2022-09-09T09:00:27;0.70;;;0.70;;
17592;SDS011;8915;51.760;14.300;2022-09-09T09:03:00;0.67;;;0.67;;
17592;SDS011;8915;51.760;14.300;2022-09-09T09:05:36;1.73;;;0.87;;
17592;SDS011;8915;51.760;14.300;2022-09-09T09:08:11;1.03;;;0.80;;
17592;SDS011;8915;51.760;14.300;2022-09-09T09:10:50;0.60;;;0.60;;
17592;SDS011;8915;51.760;14.300;2022-09-09T09:13:24;0.50;;;0.43;;
17592;SDS011;8915;51.760;14.300;2022-09-09T09:16:00;0.67;;;0.60;;
17592;SDS011;8915;51.760;14.300;2022-09-09T09:18:33;1.63;;;0.70;;
17592;SDS011;8915;51.760;14.300;2022-09-09T09:21:03;1.07;;;0.60;;
17592;SDS011;8915;51.760;14.300;2022-09-09T09:23:43;2.10;;;0.67;;
17592;SDS011;8915;51.760;14.300;2022-09-09T09:26:15;0.87;;;0.60;;
17592;SDS011;8915;51.760;14.300;2022-09-09T09:28:42;2.63;;;0.87;;
17592;SDS011;8915;51.760;14.300;2022-09-09T09:31:13;1.37;;;0.70;;
17592;SDS011;8915;51.760;14.300;2022-09-09T09:33:45;0.73;;;0.57;;
17592;SDS011;8915;51.760;14.300;2022-09-09T09:36:14;0.60;;;0.60;;
17592;SDS011;8915;51.760;14.300;2022-09-09T09:38:53;1.63;;;0.57;;
17592;SDS011;8915;51.760;14.300;2022-09-09T09:41:30;1.97;;;0.80;;
17592;SDS011;8915;51.760;14.300;2022-09-09T09:43:58;2.53;;;0.60;;
17592;SDS011;8915;51.760;14.300;2022-09-09T09:46:27;1.70;;;0.77;;
17592;SDS011;8915;51.760;14.300;2022-09-09T09:49:01;0.50;;;0.50;;
17592;SDS011;8915;51.760;14.300;2022-09-09T09:51:31;1.50;;;0.50;;
17592;SDS011;8915;51.760;14.300;2022-09-09T09:54:06;0.83;;;0.60;;
17592;SDS011;8915;51.760;14.300;2022-09-09T09:56:39;0.70;;;0.70;;
17592;SDS011;8915;51.760;14.300;2022-09-09T09:59:18;0.90;;;0.60;;
17592;SDS011;8915;51.760;14.300;2022-09-09T10:01:46;2.80;;;0.70;;
17592;SDS011;8915;51.760;14.300;2022-09-09T10:04:14;0.70;;;0.70;;
17592;SDS011;8915;51.760;14.300;2022-09-09T10:06:43;0.60;;;0.50;;
17592;SDS011;8915;51.760;14.300;2022-09-09T10:09:20;1.50;;;0.93;;
17592;SDS011;8915;51.760;14.300;2022-09-09T10:11:51;1.27;;;0.70;;
17592;SDS011;8915;51.760;14.300;2022-09-09T10:14:24;1.90;;;0.70;;
17592;SDS011;8915;51.760;14.300;2022-09-09T10:17:04;1.10;;;0.57;;
17592;SDS011;8915;51.760;14.300;2022-09-09T10:19:40;0.90;;;0.60;;
17592;SDS011;8915;51.760;14.300;2022-09-09T10:22:14;1.07;;;0.70;;
17592;SDS011;8915;51.760;14.300;2022-09-09T10:25:12;0.43;;;0.43;;
17592;SDS011;8915;51.760;14.300;2022-09-09T10:28:09;1.05;;;0.70;;
17592;SDS011;8915;51.760;14.300;2022-09-09T10:30:53;0.40;;;0.40;;
17592;SDS011;8915;51.760;14.300;2022-09-09T10:33:31;0.93;;;0.60;;
17592;SDS011;8915;51.760;14.300;2022-09-09T10:36:06;0.60;;;0.60;;
17592;SDS011;8915;51.760;14.300;2022-09-09T10:38:40;1.08;;;0.60;;
17592;SDS011;8915;51.760;14.300;2022-09-09T10:41:14;1.17;;;0.60;;
17592;SDS011;8915;51.760;14.300;2022-09-09T10:43:52;1.10;;;0.55;;
17592;SDS011;8915;51.760;14.300;2022-09-09T10:46:40;1.23;;;0.50;;
17592;SDS011;8915;51.760;14.300;2022-09-09T10:49:17;0.73;;;0.40;;
17592;SDS011;8915;51.760;14.300;2022-09-09T10:51:56;0.82;;;0.60;;
17592;SDS011;8915;51.760;14.300;2022-09-09T10:54:31;0.98;;;0.55;;
17592;SDS011;8915;51.760;14.300;2022-09-09T10:57:17;0.60;;;0.60;;
17592;SDS011;8915;51.760;14.300;2022-09-09T10:59:55;0.60;;;0.60;;
17592;SDS011;8915;51.760;14.300;2022-09-09T11:02:30;0.50;;;0.50;;
17592;SDS011;8915;51.760;14.300;2022-09-09T11:04:58;0.50;;;0.50;;
17592;SDS011;8915;51.760;14.300;2022-09-09T11:07:32;0.57;;;0.40;;
17592;SDS011;8915;51.760;14.300;2022-09-09T11:10:05;1.27;;;0.52;;
17592;SDS011;8915;51.760;14.300;2022-09-09T11:12:39;0.93;;;0.50;;
17592;SDS011;8915;51.760;14.300;2022-09-09T11:15:15;3.42;;;0.73;;
17592;SDS011;8915;51.760;14.300;2022-09-09T11:17:46;1.85;;;0.40;;
17592;SDS011;8915;51.760;14.300;2022-09-09T11:20:16;0.68;;;0.50;;
17592;SDS011;8915;51.760;14.300;2022-09-09T11:22:44;0.52;;;0.52;;
17592;SDS011;8915;51.760;14.300;2022-09-09T11:25:15;0.52;;;0.38;;
17592;SDS011;8915;51.760;14.300;2022-09-09T11:27:47;0.70;;;0.60;;
17592;SDS011;8915;51.760;14.300;2022-09-09T11:30:22;1.02;;;0.60;;
17592;SDS011;8915;51.760;14.300;2022-09-09T11:33:07;1.00;;;0.50;;
17592;SDS011;8915;51.760;14.300;2022-09-09T11:35:56;0.90;;;0.30;;
17592;SDS011;8915;51.760;14.300;2022-09-09T11:38:32;1.63;;;0.40;;
17592;SDS011;8915;51.760;14.300;2022-09-09T11:41:11;1.15;;;0.35;;
17592;SDS011;8915;51.760;14.300;2022-09-09T11:43:40;0.38;;;0.32;;
17592;SDS011;8915;51.760;14.300;2022-09-09T11:46:10;0.30;;;0.30;;
17592;SDS011;8915;51.760;14.300;2022-09-09T11:48:40;0.80;;;0.43;;
17592;SDS011;8915;51.760;14.300;2022-09-09T11:51:11;0.60;;;0.30;;
17592;SDS011;8915;51.760;14.300;2022-09-09T11:53:49;0.32;;;0.32;;
17592;SDS011;8915;51.760;14.300;2022-09-09T11:56:24;0.95;;;0.30;;
17592;SDS011;8915;51.760;14.300;2022-09-09T11:58:54;0.52;;;0.30;;
17592;SDS011;8915;51.760;14.300;2022-09-09T12:01:38;0.70;;;0.50;;
17592;SDS011;8915;51.760;14.300;2022-09-09T12:04:15;0.10;;;0.10;;
17592;SDS011;8915;51.760;14.300;2022-09-09T12:06:45;0.30;;;0.20;;
17592;SDS011;8915;51.760;14.300;2022-09-09T12:09:18;0.10;;;0.10;;
17592;SDS011;8915;51.760;14.300;2022-09-09T12:11:49;0.20;;;0.20;;
17592;SDS011;8915;51.760;14.300;2022-09-09T12:14:22;0.30;;;0.22;;
17592;SDS011;8915;51.760;14.300;2022-09-09T12:17:09;0.82;;;0.30;;
17592;SDS011;8915;51.760;14.300;2022-09-09T12:19:43;1.52;;;0.80;;
17592;SDS011;8915;51.760;14.300;2022-09-09T12:22:11;0.20;;;0.20;;
17592;SDS011;8915;51.760;14.300;2022-09-09T12:24:48;0.40;;;0.28;;
17592;SDS011;8915;51.760;14.300;2022-09-09T12:27:22;1.35;;;0.50;;
17592;SDS011;8915;51.760;14.300;2022-09-09T12:29:54;0.38;;;0.30;;
17592;SDS011;8915;51.760;14.300;2022-09-09T12:32:28;0.43;;;0.30;;
17592;SDS011;8915;51.760;14.300;2022-09-09T12:34:55;0.57;;;0.20;;
17592;SDS011;8915;51.760;14.300;2022-09-09T12:37:27;1.33;;;0.28;;
17592;SDS011;8915;51.760;14.300;2022-09-09T12:39:58;0.98;;;0.28;;
17592;SDS011;8915;51.760;14.300;2022-09-09T12:42:27;0.30;;;0.30;;
17592;SDS011;8915;51.760;14.300;2022-09-09T12:44:55;0.32;;;0.22;;
17592;SDS011;8915;51.760;14.300;2022-09-09T12:47:25;0.25;;;0.25;;
17592;SDS011;8915;51.760;14.300;2022-09-09T12:49:56;0.38;;;0.30;;
17592;SDS011;8915;51.760;14.300;2022-09-09T12:52:25;0.38;;;0.38;;
17592;SDS011;8915;51.760;14.300;2022-09-09T12:54:56;0.30;;;0.30;;
17592;SDS011;8915;51.760;14.300;2022-09-09T12:57:25;2.35;;;0.50;;
17592;SDS011;8915;51.760;14.300;2022-09-09T13:00:03;0.68;;;0.43;;
17592;SDS011;8915;51.760;14.300;2022-09-09T13:02:31;0.88;;;0.40;;
17592;SDS011;8915;51.760;14.300;2022-09-09T13:05:08;0.45;;;0.30;;
17592;SDS011;8915;51.760;14.300;2022-09-09T13:07:41;1.55;;;0.50;;
17592;SDS011;8915;51.760;14.300;2022-09-09T13:10:10;1.15;;;0.40;;
17592;SDS011;8915;51.760;14.300;2022-09-09T13:12:37;2.38;;;0.40;;
17592;SDS011;8915;51.760;14.300;2022-09-09T13:15:04;0.40;;;0.20;;
17592;SDS011;8915;51.760;14.300;2022-09-09T13:17:40;1.75;;;0.57;;
17592;SDS011;8915;51.760;14.300;2022-09-09T13:20:15;1.50;;;0.32;;
17592;SDS011;8915;51.760;14.300;2022-09-09T13:22:42;0.65;;;0.60;;
17592;SDS011;8915;51.760;14.300;2022-09-09T13:25:17;0.95;;;0.40;;
17592;SDS011;8915;51.760;14.300;2022-09-09T13:27:51;0.82;;;0.40;;
17592;SDS011;8915;51.760;14.300;2022-09-09T13:30:20;1.25;;;0.50;;
17592;SDS011;8915;51.760;14.300;2022-09-09T13:32:59;0.60;;;0.40;;
17592;SDS011;8915;51.760;14.300;2022-09-09T13:35:28;0.40;;;0.40;;
17592;SDS011;8915;51.760;14.300;2022-09-09T13:37:55;1.67;;;0.40;;
17592;SDS011;8915;51.760;14.300;2022-09-09T13:40:22;0.95;;;0.30;;
17592;SDS011;8915;51.760;14.300;2022-09-09T13:42:51;1.60;;;0.40;;
17592;SDS011;8915;51.760;14.300;2022-09-09T13:45:22;1.65;;;0.70;;
17592;SDS011;8915;51.760;14.300;2022-09-09T13:47:51;1.33;;;0.70;;
17592;SDS011;8915;51.760;14.300;2022-09-09T13:50:20;1.37;;;0.30;;
17592;SDS011;8915;51.760;14.300;2022-09-09T13:52:49;2.42;;;0.60;;
17592;SDS011;8915;51.760;14.300;2022-09-09T13:55:18;0.40;;;0.30;;
17592;SDS011;8915;51.760;14.300;2022-09-09T13:57:50;0.65;;;0.40;;
17592;SDS011;8915;51.760;14.300;2022-09-09T14:00:17;1.88;;;0.80;;
17592;SDS011;8915;51.760;14.300;2022-09-09T14:02:44;0.60;;;0.40;;
17592;SDS011;8915;51.760;14.300;2022-09-09T14:05:10;0.75;;;0.68;;
17592;SDS011;8915;51.760;14.300;2022-09-09T14:07:37;0.80;;;0.60;;
17592;SDS011;8915;51.760;14.300;2022-09-09T14:10:07;0.77;;;0.40;;
17592;SDS011;8915;51.760;14.300;2022-09-09T14:12:33;0.60;;;0.50;;
17592;SDS011;8915;51.760;14.300;2022-09-09T14:15:01;0.43;;;0.40;;
17592;SDS011;8915;51.760;14.300;2022-09-09T14:17:27;0.40;;;0.40;;
17592;SDS011;8915;51.760;14.300;2022-09-09T14:19:56;2.35;;;0.40;;
17592;SDS011;8915;51.760;14.300;2022-09-09T14:22:23;1.00;;;0.57;;
17592;SDS011;8915;51.760;14.300;2022-09-09T14:24:51;0.40;;;0.40;;
17592;SDS011;8915;51.760;14.300;2022-09-09T14:27:19;2.10;;;0.50;;
17592;SDS011;8915;51.760;14.300;2022-09-09T14:29:45;4.20;;;0.60;;
17592;SDS011;8915;51.760;14.300;2022-09-09T14:32:12;2.63;;;0.60;;
17592;SDS011;8915;51.760;14.300;2022-09-09T14:34:38;1.05;;;0.45;;
17592;SDS011;8915;51.760;14.300;2022-09-09T14:37:05;1.30;;;0.60;;
17592;SDS011;8915;51.760;14.300;2022-09-09T14:39:32;0.32;;;0.28;;
17592;SDS011;8915;51.760;14.300;2022-09-09T14:41:58;0.63;;;0.43;;
17592;SDS011;8915;51.760;14.300;2022-09-09T14:44:26;0.47;;;0.47;;
17592;SDS011;8915;51.760;14.300;2022-09-09T14:46:52;6.60;;;2.85;;
17592;SDS011;8915;51.760;14.300;2022-09-09T14:49:19;6.60;;;3.13;;
17592;SDS011;8915;51.760;14.300;2022-09-09T14:51:46;2.15;;;1.15;;
17592;SDS011;8915;51.760;14.300;2022-09-09T14:54:13;0.90;;;0.60;;
17592;SDS011;8915;51.760;14.300;2022-09-09T14:56:39;1.48;;;0.80;;
17592;SDS011;8915;51.760;14.300;2022-09-09T14:59:06;2.03;;;0.80;;
17592;SDS011;8915;51.760;14.300;2022-09-09T15:01:34;1.38;;;0.60;;
17592;SDS011;8915;51.760;14.300;2022-09-09T15:04:01;1.33;;;0.55;;
17592;SDS011;8915;51.760;14.300;2022-09-09T15:06:30;0.73;;;0.55;;
17592;SDS011;8915;51.760;14.300;2022-09-09T15:08:59;0.90;;;0.57;;
17592;SDS011;8915;51.760;14.300;2022-09-09T15:11:26;1.73;;;0.50;;
17592;SDS011;8915;51.760;14.300;2022-09-09T15:13:55;0.70;;;0.57;;
17592;SDS011;8915;51.760;14.300;2022-09-09T15:16:24;1.65;;;0.80;;